createdAt,value
2018-10-11T00:01:41.080Z,86.81
2018-10-11T00:04:46.032Z,86.42
2018-10-11T00:07:50.984Z,86.06
2018-10-11T00:10:55.937Z,85.61
2018-10-11T00:14:00.918Z,85.23
2018-10-11T00:17:06.100Z,85.21
2018-10-11T00:20:11.090Z,85.49
2018-10-11T00:23:16.091Z,86.10
2018-10-11T00:26:21.911Z,84.94
2018-10-11T00:29:27.896Z,85.66
2018-10-11T00:32:32.917Z,83.98
2018-10-11T00:35:38.332Z,84.03
2018-10-11T00:38:43.369Z,85.09
2018-10-11T00:41:48.359Z,84.45
2018-10-11T00:44:54.170Z,84.22
2018-10-11T00:47:59.148Z,84.66
2018-10-11T00:51:04.308Z,83.35
2018-10-11T00:54:09.577Z,83.90
2018-10-11T00:57:14.541Z,84.68
2018-10-11T01:00:19.566Z,84.65
2018-10-11T01:03:24.592Z,84.92
2018-10-11T01:06:29.579Z,85.41
2018-10-11T01:09:34.573Z,84.76
2018-10-11T01:12:39.558Z,83.86
2018-10-11T01:15:44.522Z,84.92
2018-10-11T01:18:49.480Z,84.79
2018-10-11T01:21:54.438Z,84.56
2018-10-11T01:24:59.393Z,84.94
2018-10-11T01:28:04.391Z,85.22
2018-10-11T01:31:15.269Z,84.07
2018-10-11T01:34:20.275Z,83.88
2018-10-11T01:37:26.464Z,84.50
2018-10-11T01:40:31.544Z,84.00
2018-10-11T01:43:36.550Z,82.93
2018-10-11T01:46:41.537Z,83.23
2018-10-11T01:49:46.538Z,83.63
2018-10-11T01:52:51.534Z,83.03
2018-10-11T01:55:56.539Z,83.37
2018-10-11T01:59:01.534Z,84.62
2018-10-11T02:02:06.546Z,84.72
2018-10-11T02:05:11.529Z,84.54
2018-10-11T02:08:16.536Z,84.22
2018-10-11T02:11:21.510Z,84.39
2018-10-11T02:14:26.492Z,84.56
2018-10-11T02:17:32.261Z,84.19
2018-10-11T02:20:37.198Z,84.03
2018-10-11T02:23:42.898Z,84.64
2018-10-11T02:26:47.830Z,84.96
2018-10-11T02:29:52.771Z,84.40
2018-10-11T02:32:57.752Z,85.49
2018-10-11T02:36:02.714Z,84.60
2018-10-11T02:39:08.771Z,84.63
2018-10-11T02:42:13.734Z,83.54
2018-10-11T02:45:18.690Z,83.85
2018-10-11T02:48:23.653Z,83.41
2018-10-11T02:51:28.644Z,84.21
2018-10-11T02:54:33.630Z,84.65
2018-10-11T02:57:50.078Z,84.77
2018-10-11T03:00:55.141Z,84.17
2018-10-11T03:04:02.162Z,84.26
2018-10-11T03:07:08.425Z,83.70
2018-10-11T03:10:14.049Z,84.15
2018-10-11T03:13:19.033Z,85.00
2018-10-11T03:16:23.994Z,84.54
2018-10-11T03:19:28.945Z,84.69
2018-10-11T03:22:33.956Z,83.08
2018-10-11T03:25:40.585Z,84.81
2018-10-11T03:28:45.564Z,84.12
2018-10-11T03:31:50.507Z,84.92
2018-10-11T03:34:55.445Z,84.76
2018-10-11T03:38:00.469Z,85.33
2018-10-11T03:41:05.593Z,84.17
2018-10-11T03:44:10.554Z,83.68
2018-10-11T03:47:15.528Z,83.45
2018-10-11T03:50:20.775Z,84.49
2018-10-11T03:53:25.732Z,83.85
2018-10-11T03:56:30.706Z,84.71
2018-10-11T03:59:35.728Z,84.75
2018-10-11T04:02:40.725Z,84.88
2018-10-11T04:05:45.699Z,83.98
2018-10-11T04:08:50.662Z,84.87
2018-10-11T04:11:55.605Z,84.40
2018-10-11T04:15:00.545Z,83.95
2018-10-11T04:18:05.910Z,84.16
2018-10-11T04:21:12.948Z,84.86
2018-10-11T04:24:17.953Z,83.72
2018-10-11T04:27:22.929Z,84.58
2018-10-11T04:30:27.900Z,85.18
2018-10-11T04:33:32.853Z,84.65
2018-10-11T04:36:37.795Z,84.62
2018-10-11T04:39:42.740Z,84.15
2018-10-11T04:42:47.795Z,84.61
2018-10-11T04:45:52.663Z,83.92
2018-10-11T04:48:57.607Z,85.23
2018-10-11T04:52:02.576Z,83.98
2018-10-11T04:55:07.604Z,84.00
2018-10-11T04:58:12.555Z,85.14
2018-10-11T05:01:17.494Z,85.76
2018-10-11T05:04:22.437Z,84.27
2018-10-11T05:07:27.369Z,84.65
2018-10-11T05:10:32.553Z,84.01
2018-10-11T05:14:56.936Z,85.41
2018-10-11T05:18:02.751Z,84.96
2018-10-11T05:21:08.937Z,86.48
2018-10-11T05:24:13.890Z,86.67
2018-10-11T05:27:18.896Z,85.00
2018-10-11T05:30:23.993Z,84.94
2018-10-11T05:33:29.182Z,86.06
2018-10-11T05:36:34.230Z,85.58
2018-10-11T05:39:39.281Z,86.77
2018-10-11T05:42:44.323Z,86.63
2018-10-11T05:45:52.781Z,85.68
2018-10-11T05:48:58.715Z,85.57
2018-10-11T05:52:03.729Z,85.02
2018-10-11T05:55:08.801Z,84.33
2018-10-11T05:58:13.814Z,85.15
2018-10-11T06:01:19.091Z,84.76
2018-10-11T06:04:24.128Z,86.08
2018-10-11T06:07:29.178Z,85.37
2018-10-11T06:10:35.854Z,85.42
2018-10-11T06:13:41.612Z,84.79
2018-10-11T06:16:46.603Z,84.49
2018-10-11T06:19:51.702Z,84.63
2018-10-11T06:22:56.730Z,84.96
2018-10-11T06:26:02.044Z,84.07
2018-10-11T06:29:07.749Z,84.12
2018-10-11T06:32:12.786Z,85.22
2018-10-11T06:35:17.829Z,84.54
2018-10-11T06:38:22.831Z,84.85
2018-10-11T06:41:27.845Z,84.30
2018-10-11T06:44:32.835Z,84.11
2018-10-11T06:47:37.822Z,83.84
2018-10-11T06:50:44.234Z,84.38
2018-10-11T06:53:49.823Z,84.62
2018-10-11T06:56:55.701Z,83.37
2018-10-11T07:00:01.774Z,83.59
2018-10-11T07:03:07.633Z,85.00
2018-10-11T07:06:13.593Z,84.34
2018-10-11T07:09:18.541Z,84.34
2018-10-11T07:12:23.489Z,82.75
2018-10-11T07:15:28.491Z,82.95
2018-10-11T07:18:33.453Z,83.97
2018-10-11T07:21:38.534Z,83.97
2018-10-11T07:24:43.509Z,83.12
2018-10-11T07:27:48.510Z,83.02
2018-10-11T07:30:53.478Z,83.01
2018-10-11T07:33:58.446Z,82.80
2018-10-11T07:37:03.425Z,83.38
2018-10-11T07:40:08.402Z,82.56
2018-10-11T07:43:13.351Z,82.96
2018-10-11T07:46:18.329Z,81.70
2018-10-11T07:49:23.283Z,82.03
2018-10-11T07:52:28.244Z,80.94
2018-10-11T07:55:33.221Z,83.25
2018-10-11T07:58:38.373Z,83.63
2018-10-11T08:01:43.394Z,83.40
2018-10-11T08:04:48.314Z,81.36
2018-10-11T08:07:53.285Z,81.82
2018-10-11T08:10:58.421Z,81.00
2018-10-11T08:14:03.296Z,79.46
2018-10-11T08:17:08.617Z,80.20
2018-10-11T08:20:13.316Z,79.59
2018-10-11T08:23:18.249Z,78.92
2018-10-11T08:26:23.511Z,77.88
2018-10-11T08:29:28.241Z,76.98
2018-10-11T08:32:33.426Z,76.66
2018-10-11T08:35:38.234Z,76.17
2018-10-11T08:38:43.308Z,75.03
2018-10-11T08:41:48.219Z,75.32
2018-10-11T08:44:53.173Z,74.62
2018-10-11T08:47:58.114Z,74.11
2018-10-11T08:51:03.160Z,73.14
2018-10-11T08:54:13.979Z,72.25
2018-10-11T08:57:20.146Z,72.83
2018-10-11T09:00:25.165Z,72.80
2018-10-11T09:03:30.151Z,71.17
2018-10-11T09:06:35.095Z,69.19
2018-10-11T09:09:41.545Z,68.55
2018-10-11T09:12:46.478Z,67.28
2018-10-11T09:15:51.457Z,67.17
2018-10-11T09:18:59.196Z,66.58
2018-10-11T09:22:10.618Z,66.94
2018-10-11T09:25:16.339Z,66.06
2018-10-11T09:28:24.271Z,66.10
2018-10-11T09:31:30.447Z,64.44
2018-10-11T09:34:36.571Z,65.09
2018-10-11T09:37:43.870Z,64.29
2018-10-11T09:40:50.198Z,62.60
2018-10-11T09:43:55.382Z,62.09
2018-10-11T09:47:00.522Z,61.64
2018-10-11T09:50:06.390Z,61.38
2018-10-11T09:53:15.622Z,62.34
2018-10-11T09:56:24.591Z,61.96
2018-10-11T09:59:32.049Z,62.29
2018-10-11T10:02:38.779Z,62.97
2018-10-11T10:05:44.902Z,60.44
2018-10-11T10:08:51.220Z,60.28
2018-10-11T10:11:56.397Z,60.37
2018-10-11T10:15:03.666Z,59.18
2018-10-11T10:18:11.025Z,58.96
2018-10-11T10:21:21.333Z,59.06
2018-10-11T10:24:27.106Z,57.82
2018-10-11T10:27:36.583Z,58.30
2018-10-11T10:30:54.958Z,57.73
2018-10-11T10:33:59.997Z,58.96
2018-10-11T10:37:06.401Z,58.97
2018-10-11T10:40:11.379Z,57.46
2018-10-11T10:43:16.356Z,58.57
2018-10-11T10:46:21.508Z,57.93
2018-10-11T10:49:26.492Z,58.27
2018-10-11T10:52:31.462Z,58.26
2018-10-11T10:55:36.438Z,57.86
2018-10-11T10:58:41.419Z,58.27
2018-10-11T11:01:46.481Z,58.63
2018-10-11T11:04:51.446Z,57.09
2018-10-11T11:07:56.446Z,56.98
2018-10-11T11:11:01.391Z,56.64
2018-10-11T11:14:06.580Z,57.42
2018-10-11T11:17:11.543Z,56.55
2018-10-11T11:20:16.534Z,54.71
2018-10-11T11:23:21.527Z,54.67
2018-10-11T11:26:26.558Z,54.32
2018-10-11T11:29:31.545Z,54.16
2018-10-11T11:32:36.563Z,53.14
2018-10-11T11:35:41.654Z,54.59
2018-10-11T11:38:46.604Z,53.81
2018-10-11T11:41:51.613Z,52.88
2018-10-11T11:44:56.703Z,53.26
2018-10-11T11:48:08.394Z,54.65
2018-10-11T11:51:15.515Z,54.96
2018-10-11T11:54:23.937Z,54.08
2018-10-11T11:57:31.934Z,53.46
2018-10-11T12:00:40.493Z,52.66
2018-10-11T12:03:48.369Z,52.68
2018-10-11T12:06:53.758Z,52.54
2018-10-11T12:09:59.582Z,51.62
2018-10-11T12:15:02.202Z,52.93
2018-10-11T12:18:09.782Z,52.77
2018-10-11T12:21:15.046Z,51.76
2018-10-11T12:24:24.585Z,51.31
2018-10-11T12:27:30.801Z,51.51
2018-10-11T12:30:37.190Z,50.42
2018-10-11T12:33:43.287Z,51.04
2018-10-11T12:36:50.505Z,53.71
2018-10-11T12:39:56.945Z,53.68
2018-10-11T12:43:07.870Z,52.47
2018-10-11T12:46:13.859Z,51.02
2018-10-11T12:49:19.040Z,52.17
2018-10-11T12:52:26.215Z,52.41
2018-10-11T12:55:32.626Z,53.27
2018-10-11T12:58:38.126Z,53.13
2018-10-11T13:01:43.404Z,54.60
2018-10-11T13:04:49.904Z,54.21
2018-10-11T13:08:00.035Z,52.44
2018-10-11T13:11:09.370Z,53.69
2018-10-11T13:14:16.138Z,53.65
2018-10-11T13:17:22.919Z,53.44
2018-10-11T13:20:30.714Z,53.40
2018-10-11T13:23:37.111Z,53.72
2018-10-11T13:26:47.276Z,53.37
2018-10-11T13:29:53.901Z,53.79
2018-10-11T13:33:02.535Z,52.69
2018-10-11T13:36:10.330Z,53.14
2018-10-11T13:39:19.339Z,54.21
2018-10-11T13:42:25.183Z,54.45
2018-10-11T13:45:32.429Z,53.03
2018-10-11T13:48:40.205Z,54.32
2018-10-11T13:51:49.252Z,54.22
2018-10-11T13:54:56.290Z,55.67
2018-10-11T13:58:02.205Z,55.27
2018-10-11T14:01:10.543Z,54.80
2018-10-11T14:04:19.616Z,57.09
2018-10-11T14:07:27.171Z,57.02
2018-10-11T14:10:35.185Z,58.09
2018-10-11T14:13:40.894Z,56.74
2018-10-11T14:16:46.846Z,56.70
2018-10-11T14:19:54.262Z,55.87
2018-10-11T14:23:03.939Z,56.21
2018-10-11T14:26:09.146Z,55.38
2018-10-11T14:32:27.203Z,56.08
2018-10-11T14:35:34.936Z,57.12
2018-10-11T14:38:40.822Z,56.59
2018-10-11T14:41:46.112Z,57.67
2018-10-11T14:44:51.185Z,57.61
2018-10-11T14:47:56.268Z,58.89
2018-10-11T14:51:02.532Z,57.99
2018-10-11T14:54:08.053Z,59.16
2018-10-11T14:57:13.117Z,58.61
2018-10-11T15:00:19.485Z,58.93
2018-10-11T15:03:25.136Z,59.05
2018-10-11T15:06:30.919Z,58.78
2018-10-11T15:09:35.930Z,59.42
2018-10-11T15:12:40.962Z,59.61
2018-10-11T15:15:46.252Z,60.98
2018-10-11T15:18:51.156Z,60.33
2018-10-11T15:21:56.695Z,59.74
2018-10-11T15:25:01.769Z,60.28
2018-10-11T15:28:06.792Z,59.75
2018-10-11T15:31:12.875Z,59.94
2018-10-11T15:34:18.553Z,60.72
2018-10-11T15:37:24.713Z,60.09
2018-10-11T15:40:29.811Z,58.75
2018-10-11T15:43:34.905Z,59.22
2018-10-11T15:46:40.531Z,58.50
2018-10-11T15:49:45.546Z,59.70
2018-10-11T15:52:51.276Z,58.45
2018-10-11T15:55:56.283Z,58.44
2018-10-11T15:59:01.461Z,59.89
2018-10-11T16:02:07.966Z,58.26
2018-10-11T16:05:13.427Z,58.37
2018-10-11T16:08:19.362Z,59.14
2018-10-11T16:11:24.374Z,59.55
2018-10-11T16:14:30.141Z,60.34
2018-10-11T16:17:36.004Z,59.36
2018-10-11T16:20:41.014Z,60.06
2018-10-11T16:23:50.509Z,60.90
2018-10-11T16:26:55.505Z,60.87
2018-10-11T16:30:00.457Z,60.79
2018-10-11T16:33:08.547Z,61.37
2018-10-11T16:36:15.717Z,61.08
2018-10-11T16:39:21.306Z,61.97
2018-10-11T16:42:27.131Z,62.52
2018-10-11T16:45:32.655Z,62.03
2018-10-11T16:48:38.567Z,63.25
2018-10-11T16:51:44.408Z,63.58
2018-10-11T16:54:50.076Z,64.17
2018-10-11T16:57:55.090Z,64.18
2018-10-11T17:01:01.803Z,64.97
2018-10-11T17:04:07.659Z,66.29
2018-10-11T17:07:12.657Z,65.67
2018-10-11T17:10:18.017Z,66.68
2018-10-11T17:13:23.327Z,66.79
2018-10-11T17:16:28.286Z,66.94
2018-10-11T17:19:34.475Z,67.56
2018-10-11T17:22:40.514Z,67.36
2018-10-11T17:25:46.162Z,68.89
2018-10-11T17:28:51.190Z,68.53
2018-10-11T17:31:56.242Z,68.67
2018-10-11T17:35:01.283Z,68.88
2018-10-11T17:38:06.553Z,70.75
2018-10-11T17:41:12.563Z,70.41
2018-10-11T17:44:18.560Z,71.61
2018-10-11T17:47:23.684Z,70.86
2018-10-11T17:50:28.721Z,71.96
2018-10-11T17:53:34.581Z,72.73
2018-10-11T17:56:39.600Z,72.63
2018-10-11T17:59:44.804Z,73.52
2018-10-11T18:02:50.542Z,73.72
2018-10-11T18:05:56.581Z,73.09
2018-10-11T18:09:01.620Z,73.69
2018-10-11T18:12:06.970Z,73.53
2018-10-11T18:15:12.887Z,73.62
2018-10-11T18:18:17.893Z,73.99
2018-10-11T18:21:22.885Z,74.47
2018-10-11T18:24:27.911Z,75.28
2018-10-11T18:27:33.908Z,75.82
2018-10-11T18:30:39.108Z,76.18
2018-10-11T18:33:45.390Z,75.61
2018-10-11T18:36:50.479Z,76.26
2018-10-11T18:39:56.278Z,77.23
2018-10-11T18:43:01.929Z,77.43
2018-10-11T18:46:07.145Z,77.45
2018-10-11T18:49:12.270Z,78.11
2018-10-11T18:52:18.195Z,77.04
2018-10-11T18:55:24.161Z,77.79
2018-10-11T18:58:29.388Z,77.46
2018-10-11T19:01:35.910Z,76.65
2018-10-11T19:04:41.224Z,77.60
2018-10-11T19:07:47.050Z,76.85
2018-10-11T19:10:52.643Z,77.09
2018-10-11T19:13:58.346Z,78.21
2018-10-11T19:17:04.222Z,77.30
2018-10-11T19:20:09.272Z,78.74
2018-10-11T19:23:15.119Z,77.68
2018-10-11T19:26:20.981Z,77.71
2018-10-11T19:29:26.016Z,78.63
2018-10-11T19:32:31.018Z,78.47
2018-10-11T19:35:36.015Z,78.52
2018-10-11T19:38:41.022Z,77.28
2018-10-11T19:41:46.105Z,77.66
2018-10-11T19:44:52.084Z,77.68
2018-10-11T19:47:57.083Z,78.92
2018-10-11T19:51:03.234Z,78.91
2018-10-11T19:54:08.967Z,78.08
2018-10-11T19:57:15.298Z,77.55
2018-10-11T20:00:22.337Z,78.06
2018-10-11T20:03:28.102Z,78.95
2018-10-11T20:06:33.970Z,78.18
2018-10-11T20:09:39.014Z,78.75
2018-10-11T20:12:44.729Z,78.46
2018-10-11T20:15:50.481Z,78.72
2018-10-11T20:18:56.390Z,79.28
2018-10-11T20:22:03.254Z,79.00
2018-10-11T20:25:09.048Z,79.40
2018-10-11T20:28:14.005Z,78.28
2018-10-11T20:31:19.081Z,78.53
2018-10-11T20:34:25.126Z,78.52
2018-10-11T20:37:30.116Z,79.56
2018-10-11T20:40:36.273Z,78.83
2018-10-11T20:43:42.270Z,78.93
2018-10-11T20:46:47.257Z,80.00
2018-10-11T20:49:53.075Z,79.30
2018-10-11T20:52:59.193Z,80.30
2018-10-11T20:56:04.989Z,80.77
2018-10-11T20:59:10.000Z,80.29
2018-10-11T21:02:15.717Z,81.99
2018-10-11T21:05:21.501Z,80.79
2018-10-11T21:08:27.229Z,80.84
2018-10-11T21:15:10.934Z,80.36
2018-10-11T21:18:15.909Z,81.32
2018-10-11T21:21:22.681Z,81.55
2018-10-11T21:24:28.469Z,80.67
2018-10-11T21:27:33.474Z,80.94
2018-10-11T21:30:38.523Z,82.02
2018-10-11T21:33:44.739Z,81.98
2018-10-11T21:36:50.525Z,81.57
2018-10-11T21:39:56.150Z,80.88
2018-10-11T21:43:01.345Z,80.66
2018-10-11T21:46:07.210Z,81.71
2018-10-11T21:49:12.222Z,81.05
2018-10-11T21:52:18.046Z,80.92
2018-10-11T21:55:24.082Z,81.91
2018-10-11T21:58:29.101Z,82.38
2018-10-11T22:01:34.781Z,81.47
2018-10-11T22:04:40.082Z,81.94
2018-10-11T22:07:45.106Z,82.49
2018-10-11T22:10:50.955Z,81.64
2018-10-11T22:13:55.975Z,81.78
2018-10-11T22:17:02.239Z,82.18
2018-10-11T22:20:07.298Z,82.37
2018-10-11T22:23:12.314Z,83.21
2018-10-11T22:26:18.169Z,82.50
2018-10-11T22:29:23.561Z,83.40
2018-10-11T22:32:29.243Z,82.21
2018-10-11T22:35:35.089Z,82.24
2018-10-11T22:38:41.456Z,82.33
2018-10-11T22:41:46.467Z,82.10
2018-10-11T22:44:51.543Z,82.80
2018-10-11T22:47:57.327Z,83.51
2018-10-11T22:51:02.370Z,83.49
2018-10-11T22:54:08.009Z,83.59
2018-10-11T22:57:12.980Z,83.68
2018-10-11T23:00:18.949Z,83.40
2018-10-11T23:03:23.941Z,83.77
2018-10-11T23:06:30.290Z,82.71
2018-10-11T23:09:35.281Z,83.85
2018-10-11T23:12:40.244Z,83.63
2018-10-11T23:15:46.026Z,84.04
2018-10-11T23:18:51.038Z,83.58
2018-10-11T23:21:56.857Z,84.18
2018-10-11T23:25:01.848Z,84.38
2018-10-11T23:28:07.612Z,84.21
2018-10-11T23:31:12.569Z,83.94
2018-10-11T23:34:17.537Z,84.69
2018-10-11T23:37:22.485Z,83.47
2018-10-11T23:40:28.264Z,84.29
2018-10-11T23:43:33.262Z,83.96
2018-10-11T23:46:38.396Z,84.23
2018-10-11T23:49:44.389Z,83.54
2018-10-11T23:52:50.041Z,84.03
2018-10-11T23:55:55.789Z,84.03
2018-10-11T23:59:01.752Z,82.97
